EST,Max TemperatureF,Mean TemperatureF,Min TemperatureF,Max Dew PointF,MeanDew PointF,Min DewpointF,Max Humidity, Mean Humidity, Min Humidity, Max Sea Level PressureIn, Mean Sea Level PressureIn, Min Sea Level PressureIn, Max VisibilityMiles, Mean VisibilityMiles, Min VisibilityMiles, Max Wind SpeedMPH, Mean Wind SpeedMPH, Max Gust SpeedMPH,PrecipitationIn, CloudCover, Events, WindDirDegrees
2012-11-1,57,50,43,38,37,34,76,61,46,29.77,29.72,29.68,10,10,10,10,6,16,0.00,5,,252
2012-11-2,60,50,40,38,33,28,76,55,33,29.93,29.83,29.76,10,10,10,17,7,31,0.00,3,,276
2012-11-3,52,47,41,37,32,28,76,60,44,30.09,30.02,29.94,10,10,10,18,6,26,0.00,3,,328
2012-11-4,50,46,41,38,35,32,76,64,52,30.10,30.05,30.00,10,10,10,12,5,16,T,7,Rain,3
2012-11-5,50,46,42,36,33,30,70,61,52,30.14,30.07,30.00,10,10,10,17,10,23,0.00,2,,9
2012-11-6,50,47,43,45,38,28,86,70,53,30.15,30.04,29.84,10,9,2,25,15,33,0.19,5,Rain,17
2012-11-7,48,45,42,45,40,36,92,79,65,29.87,29.83,29.80,10,9,4,25,14,36,0.23,8,Rain,345
2012-11-8,57,49,40,36,25,11,85,51,16,30.05,29.93,29.87,10,10,10,15,8,25,T,4,,318
2012-11-9,56,48,40,39,34,27,82,62,42,30.25,30.18,30.05,10,10,9,16,6,23,0.00,0,,329
2012-11-10,68,53,37,41,37,34,92,61,30,30.40,30.33,30.25,10,10,7,12,6,15,0.00,0,,193
2012-11-11,71,57,43,53,44,36,93,64,35,30.50,30.46,30.40,10,10,10,10,6,14,0.00,0,,184
2012-11-12,75,64,52,60,55,50,100,77,53,30.45,30.36,30.20,10,7,0,15,7,20,0.00,1,Fog,163
2012-11-13,65,55,45,61,46,36,93,82,71,30.40,30.31,30.17,10,8,2,25,14,36,0.34,8,Rain,3
2012-11-14,49,46,43,38,35,31,76,67,58,30.46,30.42,30.37,10,10,10,23,15,30,0.00,5,,15
2012-11-15,53,50,47,46,43,37,86,76,66,30.36,30.29,30.25,10,10,7,17,12,22,0.09,8,Rain,23
2012-11-16,50,48,46,43,37,31,86,70,53,30.39,30.30,30.24,10,10,10,18,14,24,0.01,5,,6
2012-11-17,52,49,45,46,41,32,80,67,53,30.49,30.46,30.37,10,10,10,23,15,28,0.00,4,,18
2012-11-18,56,53,50,48,47,46,89,81,72,30.46,30.42,30.35,10,10,9,25,18,32,0.01,7,,23
2012-11-19,52,51,49,47,46,45,86,83,80,30.33,30.24,30.15,10,9,3,25,18,33,0.00,8,,3
2012-11-20,53,51,49,48,46,44,89,83,77,30.15,30.11,30.07,10,10,7,16,11,22,0.00,8,,7
2012-11-21,53,50,47,45,44,39,86,79,71,30.16,30.12,30.08,10,10,10,18,13,23,0.00,4,,10
2012-11-22,53,50,47,45,43,41,86,79,71,30.20,30.16,30.12,10,10,10,21,12,28,0.00,1,,8
2012-11-23,64,51,38,47,40,35,100,67,34,30.12,30.00,29.79,10,6,1,15,6,17,0.00,1,,222
2012-11-24,57,48,38,38,24,19,53,44,34,30.09,29.94,29.79,10,10,10,22,9,30,0.00,0,,336
2012-11-25,48,38,28,27,21,18,72,52,31,30.14,30.07,30.01,10,10,10,18,8,24,0.00,0,,233
2012-11-26,54,45,35,40,30,22,83,56,29,30.22,30.15,30.05,10,10,9,13,4,16,0.00,0,,196
2012-11-27,62,52,41,45,41,37,92,68,44,30.20,30.16,30.08,10,10,6,16,7,24,0.07,7,Rain,298
2012-11-28,48,40,31,38,32,27,85,65,45,30.37,30.28,30.21,10,10,7,17,7,24,0.00,5,,334
2012-11-29,49,39,28,33,30,27,92,69,46,30.48,30.41,30.37,10,9,6,10,4,13,0.00,0,,98
2012-11-30,59,45,30,37,33,28,92,66,40,30.42,30.36,30.30,10,9,7,15,6,18,0.00,0,,202